MET'MAP v2.0
soon released !

Expected late october,
this new version will be
more efficient, smarter,
and hosted on a brand new
server x3 powerfull...
...and still free !


Not compatible ?
Try the mobile version !

LOG IN : | Subscribe | Disclaimer | Who is Orbifly ? |
ICAO code :

TAF - EHGR Gilze-Rijen Airbase - 12 Dec 2019 19:45 UTC
Data Sources :     NOAA   


- Airport Elevation : 49 ft
- IATA code : GLZ
- No reported NOTAMs.


EHGR - Gilze-Rijen Airbase

Latest METAR recorded : 2015/08/11 08:08 EHGR 110808Z AUTO 26004KT 9999 FEW011 20/17 Q1018 BLU 27005KT 9999 SCT007 SCT130 BECMG SCT010 SCT130
TAF TAF EHGR
Valid from the 12 at 18:00 until the 13 at 06:00 UTC


121713Z 1218/1306 16012KT 9999 BKN025
BECMG 1218/1220 BKN014 OVC035
TEMPO 1219/1302 2500 RADZ SCT008 BKN012 OVC015
PROB40
TEMPO 1220/1224 17018G32KT
BECMG 1223/1302 18010KT
TEMPO 1304/1306 2500 RADZ SCT008 BKN012 OVC015

Source NOAA


MET'MAP, your aeronautical weather chart ! - Copyright ORBIFLY December 2007

Programming & Development : Alexandra Zaïnal
Co-Developer : Marc-Olivier Méhu
Technical & hardware support : Manuel Goepfert
Concept & Financing : Baudouin d'Aumeries